createdAt,value
2018-07-05T00:02:33.180Z,16.79
2018-07-05T00:05:13.123Z,16.81
2018-07-05T00:07:53.159Z,16.80
2018-07-05T00:10:33.103Z,16.67
2018-07-05T00:13:13.176Z,16.73
2018-07-05T00:15:53.165Z,16.78
2018-07-05T00:18:33.147Z,16.93
2018-07-05T00:21:13.073Z,16.93
2018-07-05T00:23:53.036Z,16.84
2018-07-05T00:26:33.104Z,16.93
2018-07-05T00:29:13.072Z,17.04
2018-07-05T00:31:53.078Z,17.14
2018-07-05T00:34:33.095Z,17.18
2018-07-05T00:37:13.065Z,16.95
2018-07-05T00:39:53.509Z,17.13
2018-07-05T00:42:33.489Z,16.94
2018-07-05T00:45:13.632Z,16.91
2018-07-05T00:47:53.525Z,16.95
2018-07-05T00:50:33.626Z,16.92
2018-07-05T00:53:13.608Z,16.77
2018-07-05T00:55:53.459Z,16.69
2018-07-05T00:58:33.534Z,16.63
2018-07-05T01:01:13.509Z,16.63
2018-07-05T01:03:53.458Z,16.63
2018-07-05T01:06:33.564Z,16.62
2018-07-05T01:09:13.724Z,16.63
2018-07-05T01:11:53.723Z,16.63
2018-07-05T01:14:33.725Z,16.76
2018-07-05T01:17:14.616Z,16.78
2018-07-05T01:19:54.645Z,16.78
2018-07-05T01:22:34.690Z,16.61
2018-07-05T01:25:14.573Z,16.55
2018-07-05T01:27:54.517Z,16.37
2018-07-05T01:30:34.496Z,16.50
2018-07-05T01:33:14.573Z,16.63
2018-07-05T01:35:54.746Z,16.79
2018-07-05T01:38:34.878Z,16.86
2018-07-05T01:41:15.177Z,16.86
2018-07-05T01:43:55.364Z,16.80
2018-07-05T01:46:35.460Z,16.74
2018-07-05T01:49:15.590Z,16.64
2018-07-05T01:51:55.641Z,16.63
2018-07-05T01:54:35.760Z,16.77
2018-07-05T01:57:15.812Z,16.74
2018-07-05T01:59:56.003Z,16.63
2018-07-05T02:02:36.158Z,16.72
2018-07-05T02:05:16.128Z,16.69
2018-07-05T02:07:56.105Z,16.75
2018-07-05T02:10:35.937Z,16.82
2018-07-05T02:13:15.904Z,16.99
2018-07-05T02:15:55.797Z,16.88
2018-07-05T02:18:35.988Z,16.91
2018-07-05T02:21:16.048Z,17.05
2018-07-05T02:23:56.096Z,17.16
2018-07-05T02:26:36.454Z,17.14
2018-07-05T02:29:16.569Z,17.17
2018-07-05T02:31:56.479Z,17.08
2018-07-05T02:34:36.454Z,17.10
2018-07-05T02:37:21.915Z,17.18
2018-07-05T02:40:01.792Z,17.22
2018-07-05T02:42:41.852Z,17.29
2018-07-05T02:45:21.867Z,17.37
2018-07-05T02:48:01.923Z,17.35
2018-07-05T02:50:42.000Z,17.35
2018-07-05T02:53:21.969Z,17.36
2018-07-05T02:56:01.994Z,17.45
2018-07-05T02:58:41.942Z,17.48
2018-07-05T03:01:21.996Z,17.50
2018-07-05T03:04:01.906Z,17.49
2018-07-05T03:06:41.914Z,17.49
2018-07-05T03:09:22.000Z,17.58
2018-07-05T03:12:02.084Z,17.68
2018-07-05T03:14:42.155Z,17.70
2018-07-05T03:17:22.090Z,17.74
2018-07-05T03:20:02.157Z,17.78
2018-07-05T03:22:43.084Z,17.74
2018-07-05T03:25:23.227Z,17.80
2018-07-05T03:28:03.273Z,17.90
2018-07-05T03:30:43.432Z,17.91
2018-07-05T03:33:23.750Z,17.95
2018-07-05T03:36:03.795Z,17.95
2018-07-05T03:38:43.816Z,18.03
2018-07-05T03:41:23.937Z,18.05
2018-07-05T03:44:04.068Z,18.13
2018-07-05T03:46:44.103Z,18.25
2018-07-05T03:49:24.095Z,18.28
2018-07-05T03:52:04.088Z,18.37
2018-07-05T03:54:44.133Z,18.38
2018-07-05T03:57:24.357Z,18.26
2018-07-05T04:00:04.551Z,18.26
2018-07-05T04:02:44.705Z,18.42
2018-07-05T04:05:24.579Z,18.25
2018-07-05T04:08:04.573Z,18.13
2018-07-05T04:10:44.624Z,18.18
2018-07-05T04:13:24.670Z,18.22
2018-07-05T04:16:04.536Z,18.28
2018-07-05T04:18:44.655Z,18.24
2018-07-05T04:21:24.735Z,18.28
2018-07-05T04:24:04.958Z,18.49
2018-07-05T04:26:44.900Z,18.39
2018-07-05T04:29:24.772Z,18.35
2018-07-05T04:32:04.761Z,18.19
2018-07-05T04:34:44.766Z,18.30
2018-07-05T04:37:25.423Z,18.30
2018-07-05T04:40:05.518Z,18.29
2018-07-05T04:42:45.586Z,18.35
2018-07-05T04:45:25.649Z,18.36
2018-07-05T04:48:05.671Z,18.17
2018-07-05T04:50:45.801Z,18.10
2018-07-05T04:53:25.935Z,18.23
2018-07-05T04:56:05.957Z,18.28
2018-07-05T04:58:45.909Z,18.32
2018-07-05T05:01:25.888Z,18.43
2018-07-05T05:04:05.831Z,18.50
2018-07-05T05:06:45.895Z,18.42
2018-07-05T05:09:25.847Z,18.48
2018-07-05T05:12:05.906Z,18.46
2018-07-05T05:14:46.003Z,18.46
2018-07-05T05:17:26.036Z,18.54
2018-07-05T05:20:06.049Z,18.38
2018-07-05T05:22:46.092Z,18.39
2018-07-05T05:25:26.037Z,18.40
2018-07-05T05:28:06.270Z,18.59
2018-07-05T05:30:46.148Z,18.74
2018-07-05T05:33:26.243Z,18.82
2018-07-05T05:36:06.266Z,19.03
2018-07-05T05:38:46.294Z,19.06
2018-07-05T05:41:26.346Z,19.02
2018-07-05T05:44:06.267Z,18.89
2018-07-05T05:46:46.142Z,18.83
2018-07-05T05:49:26.161Z,18.88
2018-07-05T05:52:06.133Z,19.09
2018-07-05T05:54:46.083Z,19.10
2018-07-05T05:57:26.064Z,19.03
2018-07-05T06:00:06.328Z,18.79
2018-07-05T06:02:46.403Z,18.71
2018-07-05T06:05:26.506Z,18.67
2018-07-05T06:08:06.551Z,18.64
2018-07-05T06:10:46.466Z,18.63
2018-07-05T06:13:26.380Z,18.71
2018-07-05T06:16:06.261Z,18.82
2018-07-05T06:18:46.272Z,18.74
2018-07-05T06:21:26.441Z,18.83
2018-07-05T06:24:06.316Z,18.95
2018-07-05T06:26:46.375Z,18.87
2018-07-05T06:29:26.359Z,18.94
2018-07-05T06:32:06.439Z,18.85
2018-07-05T06:34:47.128Z,18.82
2018-07-05T06:37:27.271Z,18.76
2018-07-05T06:40:07.509Z,18.65
2018-07-05T06:42:47.644Z,18.54
2018-07-05T06:45:27.667Z,18.73
2018-07-05T06:48:07.936Z,19.04
2018-07-05T06:50:48.013Z,18.86
2018-07-05T06:53:28.107Z,18.77
2018-07-05T06:56:08.317Z,18.78
2018-07-05T06:58:48.352Z,18.69
2018-07-05T07:01:28.416Z,18.59
2018-07-05T07:04:08.709Z,18.71
2018-07-05T07:06:48.844Z,18.64
2018-07-05T07:09:29.052Z,18.58
2018-07-05T07:12:09.105Z,18.73
2018-07-05T07:14:49.212Z,18.63
2018-07-05T07:17:29.316Z,18.67
2018-07-05T07:20:09.265Z,18.70
2018-07-05T07:22:49.264Z,18.71
2018-07-05T07:25:29.293Z,18.81
2018-07-05T07:28:09.360Z,18.94
2018-07-05T07:30:49.281Z,18.91
2018-07-05T07:33:29.272Z,19.04
2018-07-05T07:36:09.295Z,19.27
2018-07-05T07:38:49.575Z,19.33
2018-07-05T07:41:29.672Z,19.24
2018-07-05T07:43:57.458Z,19.17
2018-07-05T07:46:25.198Z,19.23
2018-07-05T07:48:52.967Z,19.29
2018-07-05T07:51:21.191Z,19.42
2018-07-05T07:53:48.815Z,19.47
2018-07-05T07:56:16.567Z,19.53
2018-07-05T07:58:45.237Z,19.69
2018-07-05T08:01:12.947Z,19.67
2018-07-05T08:03:41.240Z,19.56
2018-07-05T08:06:09.418Z,19.50
2018-07-05T08:08:37.110Z,19.43
2018-07-05T08:11:04.776Z,19.45
2018-07-05T08:13:32.505Z,19.35
2018-07-05T08:16:00.248Z,19.52
2018-07-05T08:18:27.913Z,19.73
2018-07-05T08:20:55.622Z,19.70
2018-07-05T08:23:23.952Z,19.87
2018-07-05T08:25:51.671Z,19.88
2018-07-05T08:28:19.429Z,19.74
2018-07-05T08:30:47.260Z,19.57
2018-07-05T08:33:15.423Z,19.77
2018-07-05T08:35:43.187Z,19.67
2018-07-05T08:38:10.912Z,19.59
2018-07-05T08:40:38.617Z,19.69
2018-07-05T08:43:06.308Z,19.52
2018-07-05T08:45:34.078Z,19.68
2018-07-05T08:48:01.979Z,19.70
2018-07-05T08:50:29.725Z,19.63
2018-07-05T08:52:57.715Z,19.81
2018-07-05T08:55:27.464Z,19.81
2018-07-05T08:57:55.187Z,19.68
2018-07-05T09:00:22.862Z,19.63
2018-07-05T09:02:50.648Z,19.72
2018-07-05T09:05:19.153Z,19.76
2018-07-05T09:07:46.756Z,19.68
2018-07-05T09:10:14.495Z,19.73
2018-07-05T09:12:42.195Z,19.73
2018-07-05T09:15:09.928Z,19.85
2018-07-05T09:17:37.692Z,19.89
2018-07-05T09:20:05.815Z,20.10
2018-07-05T09:22:34.809Z,20.03
2018-07-05T09:25:02.600Z,20.00
2018-07-05T09:27:30.373Z,19.91
2018-07-05T09:29:58.082Z,19.80
2018-07-05T09:32:25.827Z,19.91
2018-07-05T09:34:53.555Z,19.90
2018-07-05T09:37:21.301Z,19.92
2018-07-05T09:39:49.004Z,19.88
2018-07-05T09:42:16.792Z,19.92
2018-07-05T09:44:44.579Z,19.89
2018-07-05T09:47:12.331Z,19.86
2018-07-05T09:49:40.137Z,19.96
2018-07-05T09:52:07.951Z,19.98
2018-07-05T09:54:35.612Z,19.89
2018-07-05T09:57:03.352Z,19.87
2018-07-05T09:59:31.040Z,20.04
2018-07-05T10:01:58.768Z,20.14
2018-07-05T10:04:26.441Z,20.07
2018-07-05T10:06:54.253Z,20.06
2018-07-05T10:09:21.952Z,20.19
2018-07-05T10:11:49.673Z,20.24
2018-07-05T10:14:17.360Z,20.26
2018-07-05T10:16:45.100Z,20.18
2018-07-05T10:19:12.927Z,20.17
2018-07-05T10:21:40.659Z,20.13
2018-07-05T10:24:08.387Z,20.25
2018-07-05T10:26:36.152Z,20.25
2018-07-05T10:29:16.451Z,20.14
2018-07-05T10:31:56.456Z,20.15
2018-07-05T10:34:24.199Z,20.20
2018-07-05T10:36:51.885Z,20.29
2018-07-05T10:39:20.192Z,20.19
2018-07-05T10:42:00.252Z,20.21
2018-07-05T10:44:40.268Z,20.25
2018-07-05T10:47:20.687Z,20.36
2018-07-05T10:50:00.757Z,20.30
2018-07-05T10:52:40.763Z,20.44
2018-07-05T10:55:21.177Z,20.42
2018-07-05T10:58:01.605Z,20.34
2018-07-05T11:00:41.757Z,20.43
2018-07-05T11:03:21.889Z,20.29
2018-07-05T11:06:02.011Z,20.35
2018-07-05T11:08:42.023Z,20.59
2018-07-05T11:11:21.980Z,20.49
2018-07-05T11:14:01.946Z,20.37
2018-07-05T11:16:41.970Z,20.39
2018-07-05T11:19:22.000Z,20.27
2018-07-05T11:22:02.073Z,20.22
2018-07-05T11:24:42.087Z,20.33
2018-07-05T11:27:22.249Z,20.50
2018-07-05T11:30:02.154Z,20.43
2018-07-05T11:32:42.311Z,20.47
2018-07-05T11:35:23.227Z,20.33
2018-07-05T11:38:03.396Z,20.25
2018-07-05T11:40:43.796Z,20.32
2018-07-05T11:43:23.850Z,20.22
2018-07-05T11:46:03.927Z,20.32
2018-07-05T11:48:44.223Z,20.11
2018-07-05T11:51:24.377Z,20.10
2018-07-05T11:54:04.340Z,20.07
2018-07-05T11:56:44.410Z,20.14
2018-07-05T11:59:24.494Z,20.16
2018-07-05T12:02:04.417Z,20.07
2018-07-05T12:04:44.432Z,20.09
2018-07-05T12:07:24.369Z,20.02
2018-07-05T12:10:04.411Z,20.12
2018-07-05T12:12:44.650Z,19.90
2018-07-05T12:15:24.656Z,19.80
2018-07-05T12:18:05.029Z,19.91
2018-07-05T12:20:45.077Z,19.94
2018-07-05T12:23:25.072Z,20.06
2018-07-05T12:26:05.174Z,20.05
2018-07-05T12:28:45.340Z,20.05
2018-07-05T12:31:25.427Z,20.19
2018-07-05T12:34:05.432Z,20.17
2018-07-05T12:36:45.394Z,20.26
2018-07-05T12:39:25.444Z,20.32
2018-07-05T12:42:05.574Z,20.44
2018-07-05T12:44:45.530Z,20.35
2018-07-05T12:47:25.540Z,20.20
2018-07-05T12:50:05.493Z,20.13
2018-07-05T14:08:55.028Z,21.24
2018-07-05T14:11:34.879Z,20.98
2018-07-05T14:14:14.895Z,21.05
2018-07-05T14:16:54.864Z,20.94
2018-07-05T14:19:34.795Z,20.90
2018-07-05T14:22:15.326Z,21.05
2018-07-05T14:24:55.487Z,21.03
2018-07-05T14:27:35.725Z,21.16
2018-07-05T14:30:15.747Z,20.85
2018-07-05T14:32:55.659Z,20.87
2018-07-05T14:35:35.652Z,20.77
2018-07-05T14:38:15.779Z,20.92
2018-07-05T14:40:55.918Z,21.04
2018-07-05T14:43:36.008Z,21.09
2018-07-05T14:46:15.943Z,21.13
2018-07-05T14:48:55.874Z,21.04
2018-07-05T14:51:35.802Z,21.15
2018-07-05T14:54:15.626Z,21.02
2018-07-05T14:56:55.743Z,21.27
2018-07-05T14:59:36.244Z,21.09
2018-07-05T15:02:16.278Z,20.86
2018-07-05T15:04:56.226Z,20.98
2018-07-05T15:07:36.222Z,21.00
2018-07-05T15:10:16.163Z,21.01
2018-07-05T15:12:56.140Z,21.01
2018-07-05T15:15:36.133Z,20.81
2018-07-05T15:18:16.137Z,20.95
2018-07-05T15:20:56.133Z,20.65
2018-07-05T15:23:36.247Z,20.65
2018-07-05T15:26:16.383Z,20.81
2018-07-05T15:28:56.388Z,20.87
2018-07-05T15:31:36.234Z,20.85
2018-07-05T15:34:16.393Z,20.69
2018-07-05T15:36:56.427Z,20.66
2018-07-05T15:39:36.954Z,20.70
2018-07-05T15:42:16.880Z,20.60
2018-07-05T15:44:56.827Z,20.64
2018-07-05T15:47:36.880Z,20.58
2018-07-05T15:50:16.797Z,20.53
2018-07-05T15:52:56.757Z,20.33
2018-07-05T15:55:36.911Z,20.26
2018-07-05T15:58:16.979Z,20.22
2018-07-05T16:00:56.966Z,20.35
2018-07-05T16:03:36.860Z,20.41
2018-07-05T16:06:16.843Z,20.47
2018-07-05T16:08:56.815Z,20.31
2018-07-05T16:11:36.647Z,20.40
2018-07-05T16:14:16.695Z,20.41
2018-07-05T16:16:56.636Z,20.54
2018-07-05T16:19:36.685Z,20.50
2018-07-05T16:22:16.635Z,20.48
2018-07-05T16:24:56.735Z,20.37
2018-07-05T16:27:36.928Z,20.39
2018-07-05T16:30:16.894Z,20.45
2018-07-05T16:32:57.383Z,20.32
2018-07-05T16:35:37.347Z,20.16
2018-07-05T16:38:17.588Z,20.18
2018-07-05T16:40:57.571Z,20.11
2018-07-05T16:43:37.765Z,20.13
2018-07-05T16:46:17.716Z,20.14
2018-07-05T16:48:57.705Z,20.13
2018-07-05T16:51:37.660Z,20.20
2018-07-05T16:54:17.720Z,20.15
2018-07-05T16:56:57.778Z,20.32
2018-07-05T16:59:37.745Z,20.54
2018-07-05T17:02:17.765Z,20.45
2018-07-05T17:04:57.808Z,20.26
2018-07-05T17:07:37.929Z,20.30
2018-07-05T17:10:17.963Z,20.10
2018-07-05T17:12:58.192Z,20.06
2018-07-05T17:19:19.613Z,20.07
2018-07-05T17:21:59.992Z,20.05
2018-07-05T17:24:40.294Z,19.98
2018-07-05T17:27:20.528Z,20.05
2018-07-05T17:30:00.658Z,19.98
2018-07-05T17:32:41.555Z,20.01
2018-07-05T17:35:21.839Z,19.90
2018-07-05T17:38:02.115Z,19.90
2018-07-05T17:40:42.753Z,19.95
2018-07-05T17:43:22.846Z,19.86
2018-07-05T17:46:03.319Z,19.77
2018-07-05T17:48:43.540Z,19.75
2018-07-05T17:51:23.859Z,19.73
2018-07-05T17:54:04.270Z,20.04
2018-07-05T17:56:44.474Z,20.26
2018-07-05T17:59:24.574Z,20.26
2018-07-05T18:02:05.595Z,20.25
2018-07-05T18:04:45.636Z,20.20
2018-07-05T18:07:25.560Z,20.30
2018-07-05T18:10:05.590Z,20.49
2018-07-05T18:12:45.780Z,20.48
2018-07-05T18:15:25.889Z,20.34
2018-07-05T18:18:06.067Z,20.45
2018-07-05T18:20:46.161Z,20.24
2018-07-05T18:23:26.297Z,20.15
2018-07-05T18:26:06.418Z,20.26
2018-07-05T18:28:46.428Z,20.26
2018-07-05T18:31:26.478Z,20.28
2018-07-05T18:34:06.602Z,20.28
2018-07-05T18:36:46.748Z,20.17
2018-07-05T18:39:26.875Z,20.12
2018-07-05T20:04:17.267Z,19.03
2018-07-05T20:06:57.507Z,19.07
2018-07-05T20:09:37.461Z,19.16
2018-07-05T20:12:17.650Z,19.03
2018-07-05T20:14:57.614Z,19.13
2018-07-05T20:17:38.628Z,19.10
2018-07-05T20:20:18.752Z,19.16
2018-07-05T20:22:58.632Z,19.13
2018-07-05T20:25:38.644Z,19.09
2018-07-05T20:28:18.680Z,19.06
2018-07-05T20:30:58.722Z,19.13
2018-07-05T20:33:38.727Z,19.17
2018-07-05T20:36:18.743Z,19.07
2018-07-05T20:38:58.720Z,19.18
2018-07-05T20:41:38.833Z,19.21
2018-07-05T20:44:18.985Z,19.20
2018-07-05T20:46:58.945Z,19.08
2018-07-05T20:49:38.909Z,19.17
2018-07-05T20:52:20.428Z,19.14
2018-07-05T20:55:01.016Z,19.18
2018-07-05T20:57:41.078Z,19.11
2018-07-05T21:00:21.176Z,18.97
2018-07-05T21:03:01.101Z,18.97
2018-07-05T21:05:41.083Z,19.09
2018-07-05T21:08:21.680Z,19.03
2018-07-05T21:11:01.660Z,19.02
2018-07-05T21:13:41.715Z,19.11
2018-07-05T21:16:21.683Z,18.96
2018-07-05T21:19:01.643Z,18.94
2018-07-05T21:21:41.698Z,18.88
2018-07-05T21:24:21.746Z,18.94
2018-07-05T21:27:01.799Z,18.94
2018-07-05T21:29:41.891Z,19.00
2018-07-05T21:32:22.137Z,18.87
2018-07-05T21:35:02.408Z,18.77
2018-07-05T21:37:42.731Z,18.77
2018-07-05T21:40:23.059Z,18.80
2018-07-05T21:43:02.974Z,18.79
2018-07-05T21:45:42.976Z,18.61
2018-07-05T21:48:23.386Z,18.71
2018-07-05T21:51:03.587Z,18.83
2018-07-05T21:53:43.637Z,18.73
2018-07-05T21:56:23.649Z,18.94
2018-07-05T21:59:03.639Z,18.99
2018-07-05T22:01:43.931Z,18.98
2018-07-05T22:04:24.063Z,18.93
2018-07-05T22:07:04.683Z,18.83
2018-07-05T22:09:44.722Z,18.86
2018-07-05T22:12:24.832Z,18.68
2018-07-05T22:15:04.844Z,18.87
2018-07-05T22:17:50.384Z,18.78
2018-07-05T22:20:35.971Z,18.65
2018-07-05T22:23:21.416Z,18.56
2018-07-05T22:27:10.864Z,18.52
2018-07-05T22:29:56.798Z,18.48
2018-07-05T22:32:36.739Z,18.48
2018-07-05T22:35:16.971Z,18.42
2018-07-05T22:37:57.032Z,18.39
2018-07-05T22:40:37.207Z,18.27
2018-07-05T22:43:17.314Z,18.39
2018-07-05T22:45:57.364Z,18.38
2018-07-05T22:48:37.491Z,18.38
2018-07-05T22:51:17.642Z,18.41
2018-07-05T22:53:57.646Z,18.40
2018-07-05T22:56:38.018Z,18.36
2018-07-05T22:59:18.191Z,18.29
2018-07-05T23:01:58.173Z,18.39
2018-07-05T23:04:38.176Z,18.24
2018-07-05T23:07:18.316Z,18.27
2018-07-05T23:09:58.463Z,18.29
2018-07-05T23:12:38.525Z,18.33
2018-07-05T23:15:18.604Z,18.46
2018-07-05T23:17:58.756Z,18.39
2018-07-05T23:20:38.677Z,18.33
2018-07-05T23:23:18.644Z,18.34
2018-07-05T23:25:58.750Z,18.35
2018-07-05T23:28:38.948Z,18.26
2018-07-05T23:31:19.157Z,18.21
2018-07-05T23:33:59.278Z,18.15
2018-07-05T23:36:39.538Z,18.02
2018-07-05T23:39:19.556Z,17.84
2018-07-05T23:41:59.347Z,17.67
2018-07-05T23:44:39.443Z,17.64
2018-07-05T23:47:19.762Z,17.70
2018-07-05T23:49:59.871Z,17.70
2018-07-05T23:52:39.930Z,17.89
2018-07-05T23:55:20.071Z,17.79
2018-07-05T23:58:00.068Z,17.66
